createdAt,value
2018-11-28T00:00:35.475Z,91.70
2018-11-28T00:03:03.066Z,91.80
2018-11-28T00:05:30.694Z,91.80
2018-11-28T00:07:58.276Z,91.70
2018-11-28T00:10:25.860Z,91.70
2018-11-28T00:12:53.476Z,91.80
2018-11-28T00:15:21.084Z,91.90
2018-11-28T00:17:48.734Z,91.90
2018-11-28T00:20:16.339Z,91.90
2018-11-28T00:22:43.971Z,91.90
2018-11-28T00:25:11.575Z,92.00
2018-11-28T00:27:39.931Z,92.10
2018-11-28T00:30:07.561Z,92.10
2018-11-28T00:32:35.143Z,92.20
2018-11-28T00:35:02.743Z,92.20
2018-11-28T00:37:31.122Z,92.30
2018-11-28T00:39:59.473Z,92.40
2018-11-28T00:42:27.054Z,92.40
2018-11-28T00:44:54.686Z,92.10
2018-11-28T00:47:22.270Z,91.90
2018-11-28T00:49:49.855Z,91.80
2018-11-28T00:52:17.489Z,91.80
2018-11-28T00:54:45.085Z,91.80
2018-11-28T00:57:12.674Z,91.80
2018-11-28T00:59:40.293Z,92.20
2018-11-28T01:02:07.878Z,91.90
2018-11-28T01:04:35.469Z,91.60
2018-11-28T01:07:03.080Z,91.60
2018-11-28T01:09:31.450Z,91.90
2018-11-28T01:11:59.037Z,91.80
2018-11-28T01:14:26.678Z,91.80
2018-11-28T01:16:54.275Z,91.90
2018-11-28T01:19:21.865Z,92.00
2018-11-28T01:21:49.490Z,92.10
2018-11-28T01:24:17.091Z,92.10
2018-11-28T01:26:44.666Z,92.20
2018-11-28T01:29:12.286Z,92.20
2018-11-28T01:31:39.865Z,92.30
2018-11-28T01:34:07.493Z,92.30
2018-11-28T01:36:35.082Z,92.30
2018-11-28T01:39:02.676Z,92.40
2018-11-28T01:41:30.297Z,92.60
2018-11-28T01:43:57.883Z,92.60
2018-11-28T01:46:25.473Z,92.90
2018-11-28T01:48:53.084Z,92.60
2018-11-28T01:51:20.665Z,92.40
2018-11-28T01:53:50.056Z,92.40
2018-11-28T01:56:17.638Z,92.40
2018-11-28T01:58:45.220Z,92.50
2018-11-28T02:01:12.835Z,92.60
2018-11-28T02:03:40.421Z,92.70
2018-11-28T02:06:08.037Z,92.70
2018-11-28T02:08:36.395Z,92.90
2018-11-28T02:11:03.976Z,92.80
2018-11-28T02:13:32.837Z,93.00
2018-11-28T02:16:00.424Z,93.00
2018-11-28T02:18:28.796Z,93.00
2018-11-28T02:20:57.194Z,93.00
2018-11-28T02:23:25.557Z,92.80
2018-11-28T02:25:53.163Z,92.80
2018-11-28T02:28:20.765Z,92.80
2018-11-28T02:30:48.351Z,92.70
2018-11-28T02:33:15.990Z,92.70
2018-11-28T02:35:43.579Z,92.70
2018-11-28T02:38:11.935Z,92.90
2018-11-28T02:40:39.550Z,92.90
2018-11-28T02:43:07.136Z,92.50
2018-11-28T02:45:34.756Z,92.50
2018-11-28T02:48:02.344Z,92.20
2018-11-28T02:50:29.939Z,92.20
2018-11-28T02:52:57.571Z,92.20
2018-11-28T02:55:25.176Z,92.20
2018-11-28T02:57:52.802Z,92.30
2018-11-28T03:00:20.387Z,92.10
2018-11-28T03:02:47.978Z,92.10
2018-11-28T03:05:16.360Z,92.10
2018-11-28T03:07:44.711Z,92.20
2018-11-28T03:10:12.352Z,92.20
2018-11-28T03:12:39.947Z,92.20
2018-11-28T03:15:07.539Z,92.40
2018-11-28T03:17:35.158Z,92.20
2018-11-28T03:20:02.736Z,92.20
2018-11-28T03:22:30.371Z,92.20
2018-11-28T03:24:57.963Z,92.30
2018-11-28T03:27:25.545Z,92.20
2018-11-28T03:29:53.159Z,92.30
2018-11-28T03:32:20.742Z,92.30
2018-11-28T03:34:48.366Z,92.30
2018-11-28T03:37:15.945Z,92.30
2018-11-28T03:39:43.527Z,92.30
2018-11-28T03:42:11.151Z,92.30
2018-11-28T03:44:38.738Z,92.30
2018-11-28T03:47:06.425Z,92.40
2018-11-28T03:49:33.983Z,92.40
2018-11-28T03:52:02.363Z,92.30
2018-11-28T03:54:29.936Z,92.30
2018-11-28T03:56:57.532Z,92.20
2018-11-28T03:59:25.142Z,92.20
2018-11-28T04:01:52.723Z,92.10
2018-11-28T04:04:21.091Z,92.20
2018-11-28T04:06:49.469Z,92.30
2018-11-28T04:09:17.050Z,92.20
2018-11-28T04:11:44.674Z,92.30
2018-11-28T04:14:12.263Z,92.20
2018-11-28T04:16:40.618Z,92.70
2018-11-28T04:19:08.235Z,92.40
2018-11-28T04:21:35.833Z,92.10
2018-11-28T04:24:03.457Z,92.20
2018-11-28T04:26:31.451Z,92.10
2018-11-28T04:28:59.035Z,92.10
2018-11-28T04:31:26.639Z,92.10
2018-11-28T04:33:55.608Z,92.00
2018-11-28T04:36:23.245Z,92.10
2018-11-28T04:38:50.833Z,92.10
2018-11-28T04:41:18.441Z,92.10
2018-11-28T04:43:46.067Z,92.20
2018-11-28T04:46:14.417Z,92.30
2018-11-28T04:48:42.000Z,92.30
2018-11-28T04:51:10.388Z,92.80
2018-11-28T04:53:38.740Z,92.50
2018-11-28T04:56:06.325Z,92.50
2018-11-28T04:58:33.959Z,92.70
2018-11-28T05:01:01.554Z,92.80
2018-11-28T05:03:29.905Z,93.00
2018-11-28T05:05:57.538Z,93.00
2018-11-28T05:08:25.122Z,93.00
2018-11-28T05:10:52.735Z,93.40
2018-11-28T05:13:20.644Z,93.00
2018-11-28T05:15:49.151Z,93.30
2018-11-28T05:18:16.764Z,93.00
2018-11-28T05:20:45.087Z,93.00
2018-11-28T05:23:12.718Z,93.00
2018-11-28T05:25:40.314Z,93.00
2018-11-28T05:28:07.893Z,93.00
2018-11-28T05:30:35.755Z,93.10
2018-11-28T05:33:03.114Z,93.10
2018-11-28T05:35:30.699Z,93.30
2018-11-28T05:37:58.315Z,93.40
2018-11-28T05:40:25.912Z,93.40
2018-11-28T05:42:54.340Z,93.50
2018-11-28T05:45:21.943Z,93.40
2018-11-28T05:47:49.518Z,93.50
2018-11-28T05:50:17.167Z,93.60
2018-11-28T05:52:44.745Z,93.70
2018-11-28T05:55:13.170Z,93.80
2018-11-28T05:57:40.760Z,93.70
2018-11-28T06:00:08.345Z,93.80
2018-11-28T06:02:36.724Z,93.90
2018-11-28T06:05:04.309Z,93.90
2018-11-28T06:07:31.942Z,94.00
2018-11-28T06:10:00.328Z,94.00
2018-11-28T06:12:27.879Z,94.00
2018-11-28T06:14:55.500Z,94.20
2018-11-28T06:17:23.092Z,93.80
2018-11-28T06:19:50.728Z,93.70
2018-11-28T06:22:18.319Z,93.70
2018-11-28T06:24:45.907Z,93.80
2018-11-28T06:27:14.775Z,94.00
2018-11-28T06:29:42.451Z,93.90
2018-11-28T06:32:10.804Z,93.30
2018-11-28T06:34:38.468Z,93.30
2018-11-28T06:37:06.052Z,93.30
2018-11-28T06:39:34.404Z,92.90
2018-11-28T06:42:02.056Z,92.90
2018-11-28T06:44:29.642Z,92.90
2018-11-28T06:46:57.230Z,92.90
2018-11-28T06:49:25.992Z,92.90
2018-11-28T06:51:53.589Z,92.90
2018-11-28T06:54:21.173Z,93.00
2018-11-28T06:56:49.704Z,93.10
2018-11-28T06:59:17.292Z,93.10
2018-11-28T07:01:45.637Z,93.20
2018-11-28T07:04:13.272Z,93.20
2018-11-28T07:06:40.857Z,93.20
2018-11-28T07:09:08.451Z,93.20
2018-11-28T07:11:36.088Z,93.20
2018-11-28T07:14:03.663Z,93.40
2018-11-28T07:16:31.246Z,93.00
2018-11-28T07:19:02.567Z,93.00
2018-11-28T07:21:30.159Z,92.90
2018-11-28T07:23:57.741Z,92.80
2018-11-28T07:26:25.370Z,93.30
2018-11-28T07:28:53.723Z,93.10
2018-11-28T07:31:21.320Z,93.00
2018-11-28T07:33:48.933Z,93.00
2018-11-28T07:36:16.794Z,93.30
2018-11-28T07:38:45.220Z,93.10
2018-11-28T07:41:13.565Z,93.00
2018-11-28T07:43:41.159Z,93.00
2018-11-28T07:46:09.605Z,93.30
2018-11-28T07:48:37.193Z,93.30
2018-11-28T07:51:04.787Z,92.90
2018-11-28T07:53:32.435Z,92.40
2018-11-28T07:56:00.021Z,92.10
2018-11-28T07:58:27.603Z,92.60
2018-11-28T08:00:55.273Z,92.40
2018-11-28T08:03:22.869Z,92.40
2018-11-28T08:05:50.459Z,92.50
2018-11-28T08:08:18.134Z,92.70
2018-11-28T08:10:45.734Z,92.70
2018-11-28T08:13:13.323Z,92.80
2018-11-28T08:15:40.944Z,92.80
2018-11-28T08:18:08.544Z,92.80
2018-11-28T08:20:36.139Z,92.80
2018-11-28T08:23:03.768Z,93.00
2018-11-28T08:25:31.354Z,93.00
2018-11-28T08:27:59.795Z,93.00
2018-11-28T08:30:27.365Z,93.00
2018-11-28T08:32:54.947Z,93.00
2018-11-28T08:35:22.531Z,92.90
2018-11-28T08:37:50.211Z,93.00
2018-11-28T08:40:17.788Z,92.80
2018-11-28T08:42:45.377Z,92.70
2018-11-28T08:45:13.009Z,92.80
2018-11-28T08:47:40.881Z,92.90
2018-11-28T08:50:08.485Z,92.90
2018-11-28T08:52:36.084Z,93.00
2018-11-28T08:55:03.670Z,93.00
2018-11-28T08:57:31.244Z,93.10
2018-11-28T08:59:58.870Z,93.10
2018-11-28T09:02:26.450Z,93.10
2018-11-28T09:04:54.031Z,93.00
2018-11-28T09:07:21.651Z,93.00
2018-11-28T09:09:49.828Z,93.00
2018-11-28T09:12:16.890Z,92.90
2018-11-28T09:14:44.994Z,92.90
2018-11-28T09:17:15.120Z,92.90
2018-11-28T09:19:40.926Z,92.80
2018-11-28T09:22:08.616Z,92.70
2018-11-28T09:24:36.167Z,92.80
2018-11-28T09:27:03.807Z,92.70
2018-11-28T09:29:31.412Z,92.70
2018-11-28T09:31:59.768Z,92.70
2018-11-28T09:34:27.347Z,92.70
2018-11-28T09:36:55.254Z,92.70
2018-11-28T09:39:22.832Z,92.80
2018-11-28T09:41:50.416Z,92.60
2018-11-28T09:44:18.026Z,92.60
2018-11-28T09:46:45.621Z,92.60
2018-11-28T09:49:14.017Z,92.60
2018-11-28T09:51:41.616Z,92.60
2018-11-28T09:54:09.971Z,93.20
2018-11-28T09:56:38.428Z,93.20
2018-11-28T09:59:06.003Z,92.80
2018-11-28T10:01:33.581Z,92.50
2018-11-28T10:04:01.211Z,92.60
2018-11-28T10:06:28.788Z,92.70
2018-11-28T10:08:56.372Z,92.80
2018-11-28T10:11:24.751Z,92.50
2018-11-28T10:13:52.336Z,92.80
2018-11-28T10:16:19.987Z,93.10
2018-11-28T10:18:47.566Z,93.20
2018-11-28T10:21:15.147Z,93.30
2018-11-28T10:23:42.822Z,93.40
2018-11-28T10:26:10.418Z,93.20
2018-11-28T10:28:38.000Z,93.30
2018-11-28T10:31:06.372Z,93.40
2018-11-28T10:33:34.709Z,93.40
2018-11-28T10:36:02.348Z,93.30
2018-11-28T10:38:29.926Z,93.40
2018-11-28T10:40:57.510Z,93.30
2018-11-28T10:43:25.163Z,93.50
2018-11-28T10:45:52.802Z,93.60
2018-11-28T10:48:20.324Z,93.50
2018-11-28T10:50:48.726Z,93.50
2018-11-28T10:53:16.301Z,93.50
2018-11-28T10:55:43.875Z,93.40
2018-11-28T10:58:11.517Z,93.40
2018-11-28T11:00:39.097Z,93.30
2018-11-28T11:03:12.410Z,93.40
2018-11-28T11:05:40.025Z,93.30
2018-11-28T11:08:10.339Z,93.00
2018-11-28T11:10:56.664Z,93.10
2018-11-28T11:13:24.236Z,93.10
2018-11-28T11:15:51.808Z,93.00
2018-11-28T11:18:20.329Z,93.10
2018-11-28T11:20:47.919Z,93.10
2018-11-28T11:23:16.264Z,93.50
2018-11-28T11:25:43.891Z,93.50
2018-11-28T11:28:11.469Z,93.20
2018-11-28T11:30:39.051Z,92.70
2018-11-28T11:33:07.099Z,92.70
2018-11-28T11:35:34.688Z,92.60
2018-11-28T11:38:02.275Z,92.60
2018-11-28T11:40:29.901Z,92.30
2018-11-28T11:42:57.479Z,92.30
2018-11-28T11:45:25.066Z,92.20
2018-11-28T11:47:53.495Z,92.10
2018-11-28T11:50:21.086Z,92.10
2018-11-28T11:52:48.705Z,92.30
2018-11-28T11:55:16.534Z,92.60
2018-11-28T11:57:43.945Z,92.80
2018-11-28T12:00:11.549Z,92.90
2018-11-28T12:02:39.469Z,93.20
2018-11-28T12:05:07.052Z,93.40
2018-11-28T12:07:34.644Z,93.50
2018-11-28T12:10:02.368Z,93.70
2018-11-28T12:12:29.952Z,94.00
2018-11-28T12:14:57.526Z,93.90
2018-11-28T12:17:25.927Z,94.00
2018-11-28T12:19:53.524Z,93.90
2018-11-28T12:22:21.100Z,94.00
2018-11-28T12:24:48.734Z,94.10
2018-11-28T12:27:16.323Z,94.10
2018-11-28T12:29:43.890Z,94.20
2018-11-28T12:32:11.535Z,94.20
2018-11-28T12:34:39.091Z,94.30
2018-11-28T12:37:06.774Z,94.40
2018-11-28T12:39:34.304Z,94.40
2018-11-28T12:42:01.882Z,94.30
2018-11-28T12:44:29.522Z,94.30
2018-11-28T12:46:57.100Z,94.30
2018-11-28T12:49:24.679Z,94.40
2018-11-28T12:51:52.303Z,94.30
2018-11-28T12:54:19.896Z,94.40
2018-11-28T12:56:47.483Z,94.50
2018-11-28T12:59:15.154Z,94.30
2018-11-28T13:01:42.753Z,94.20
2018-11-28T13:04:10.325Z,94.20
2018-11-28T13:06:38.005Z,94.10
2018-11-28T13:09:05.579Z,94.10
2018-11-28T13:11:33.163Z,94.10
2018-11-28T13:14:01.170Z,94.10
2018-11-28T13:16:28.763Z,94.10
2018-11-28T13:18:56.334Z,94.00
2018-11-28T13:21:23.988Z,94.00
2018-11-28T13:23:51.567Z,94.00
2018-11-28T13:26:19.148Z,94.10
2018-11-28T13:28:48.342Z,93.90
2018-11-28T13:31:15.932Z,93.90
2018-11-28T13:33:43.514Z,93.70
2018-11-28T13:36:11.174Z,93.60
2018-11-28T13:38:38.766Z,93.60
2018-11-28T13:41:06.345Z,93.70
2018-11-28T13:43:34.296Z,93.80
2018-11-28T13:46:07.071Z,93.80
2018-11-28T13:48:29.458Z,94.00
2018-11-28T13:50:58.581Z,94.20
2018-11-28T13:53:26.171Z,94.20
2018-11-28T13:56:57.478Z,94.20
2018-11-28T13:58:21.417Z,94.30
2018-11-28T14:00:48.991Z,94.70
2018-11-28T14:03:16.574Z,94.50
2018-11-28T14:05:44.929Z,94.60
2018-11-28T14:08:12.505Z,94.70
2018-11-28T14:10:40.870Z,94.80
2018-11-28T14:13:09.245Z,94.80
2018-11-28T14:15:36.830Z,94.70
2018-11-28T14:18:05.178Z,95.00
2018-11-28T14:20:32.805Z,94.90
2018-11-28T14:23:00.373Z,95.00
2018-11-28T14:25:28.021Z,95.10
2018-11-28T14:27:55.556Z,95.20
2018-11-28T14:30:23.896Z,95.20
2018-11-28T14:32:52.576Z,95.20
2018-11-28T14:35:20.151Z,95.20
2018-11-28T14:37:47.731Z,95.00
2018-11-28T14:40:16.175Z,95.10
2018-11-28T14:42:43.754Z,95.20
2018-11-28T14:45:11.339Z,95.20
2018-11-28T14:47:39.294Z,95.20
2018-11-28T14:50:06.884Z,95.30
2018-11-28T14:52:34.460Z,95.30
2018-11-28T14:55:02.092Z,95.60
2018-11-28T14:57:29.672Z,95.10
2018-11-28T14:59:57.255Z,94.80
2018-11-28T15:02:26.384Z,94.90
2018-11-28T15:04:53.959Z,94.90
2018-11-28T15:07:21.539Z,95.00
2018-11-28T15:09:49.901Z,95.20
2018-11-28T15:12:17.476Z,95.20
2018-11-28T15:14:45.939Z,95.20
2018-11-28T15:17:13.514Z,95.20
2018-11-28T15:19:41.130Z,95.20
2018-11-28T15:22:09.557Z,95.10
2018-11-28T15:24:37.112Z,95.10
2018-11-28T15:27:04.700Z,95.00
2018-11-28T15:29:32.848Z,95.10
2018-11-28T15:32:00.430Z,95.40
2018-11-28T15:34:28.777Z,95.10
2018-11-28T15:36:56.381Z,95.10
2018-11-28T15:39:23.980Z,95.10
2018-11-28T15:41:52.683Z,95.20
2018-11-28T15:44:20.266Z,95.30
2018-11-28T15:46:47.877Z,95.40
2018-11-28T15:49:15.576Z,95.50
2018-11-28T15:51:43.106Z,95.50
2018-11-28T15:54:11.777Z,95.50
2018-11-28T15:56:40.146Z,95.10
2018-11-28T15:59:07.729Z,95.10
2018-11-28T16:01:35.312Z,95.00
2018-11-28T16:04:02.980Z,95.10
2018-11-28T16:06:31.503Z,95.20
2018-11-28T16:08:58.117Z,95.30
2018-11-28T16:11:25.762Z,95.30
2018-11-28T16:13:53.331Z,95.30
2018-11-28T16:16:20.924Z,95.30
2018-11-28T16:18:49.636Z,95.60
2018-11-28T16:21:17.218Z,95.40
2018-11-28T16:23:44.794Z,95.50
2018-11-28T16:26:12.397Z,95.50
2018-11-28T16:28:39.977Z,95.40
2018-11-28T16:31:08.943Z,95.60
2018-11-28T16:33:36.534Z,95.60
2018-11-28T16:36:04.873Z,95.90
2018-11-28T16:38:32.481Z,95.80
2018-11-28T16:41:00.055Z,95.30
2018-11-28T16:43:27.854Z,95.30
2018-11-28T16:45:55.435Z,95.00
2018-11-28T16:48:23.013Z,95.00
2018-11-28T16:50:50.671Z,95.10
2018-11-28T16:53:18.281Z,95.40
2018-11-28T16:55:46.585Z,95.20
2018-11-28T16:58:15.391Z,95.10
2018-11-28T17:00:42.980Z,95.20
2018-11-28T17:03:11.334Z,95.70
2018-11-28T17:05:38.956Z,95.70
2018-11-28T17:08:06.534Z,95.30
2018-11-28T17:10:34.104Z,95.30
2018-11-28T17:13:01.715Z,95.40
2018-11-28T17:15:29.295Z,95.60
2018-11-28T17:17:56.878Z,95.90
2018-11-28T17:20:24.493Z,95.60
2018-11-28T17:22:52.848Z,95.30
2018-11-28T17:25:20.429Z,95.30
2018-11-28T17:27:48.025Z,95.30
2018-11-28T17:30:18.765Z,95.40
2018-11-28T17:32:44.076Z,95.50
2018-11-28T17:35:11.639Z,95.50
2018-11-28T17:37:39.221Z,95.40
2018-11-28T17:40:06.863Z,95.50
2018-11-28T17:42:34.429Z,95.60
2018-11-28T17:45:02.002Z,95.70
2018-11-28T17:47:29.648Z,95.70
2018-11-28T17:49:57.222Z,95.80
2018-11-28T17:52:25.184Z,95.80
2018-11-28T17:54:52.804Z,95.90
2018-11-28T17:57:20.380Z,95.90
2018-11-28T17:59:47.955Z,96.00
2018-11-28T18:02:16.439Z,96.00
2018-11-28T18:04:44.250Z,96.00
2018-11-28T18:07:12.737Z,96.10
2018-11-28T18:09:40.216Z,96.20
2018-11-28T18:12:08.574Z,96.20
2018-11-28T18:14:36.146Z,96.20
2018-11-28T18:17:04.579Z,96.20
2018-11-28T18:19:32.150Z,96.10
2018-11-28T18:21:59.737Z,96.10
2018-11-28T18:24:27.382Z,96.10
2018-11-28T18:26:54.977Z,96.10
2018-11-28T18:29:22.567Z,96.10
2018-11-28T18:31:50.203Z,96.60
2018-11-28T18:34:19.727Z,95.80
2018-11-28T18:36:48.881Z,95.60
2018-11-28T18:39:17.880Z,95.60
2018-11-28T18:41:45.477Z,95.50
2018-11-28T18:44:13.054Z,95.50
2018-11-28T18:46:41.742Z,95.60
2018-11-28T18:49:09.315Z,95.60
2018-11-28T18:51:36.880Z,95.50
2018-11-28T18:54:04.478Z,95.50
2018-11-28T18:56:32.062Z,95.40
2018-11-28T18:59:00.483Z,95.70
2018-11-28T19:01:28.071Z,95.70
2018-11-28T19:03:55.651Z,95.70
2018-11-28T19:06:23.276Z,95.80
2018-11-28T19:08:50.854Z,95.90
2018-11-28T19:11:18.428Z,96.00
2018-11-28T19:13:46.033Z,96.00
2018-11-28T19:16:13.606Z,96.50
2018-11-28T19:18:41.814Z,96.00
2018-11-28T19:21:09.397Z,95.90
2018-11-28T19:23:37.010Z,95.90
2018-11-28T19:26:06.352Z,96.10
2018-11-28T19:28:33.922Z,96.10
2018-11-28T19:31:01.548Z,96.10
2018-11-28T19:33:29.168Z,96.50
2018-11-28T19:35:57.536Z,96.40
2018-11-28T19:38:25.139Z,96.40
2018-11-28T19:40:52.796Z,96.00
2018-11-28T19:43:21.165Z,96.30
2018-11-28T19:45:48.685Z,96.00
2018-11-28T19:48:16.331Z,96.10
2018-11-28T19:50:43.874Z,96.00
2018-11-28T19:53:12.363Z,96.10
2018-11-28T19:55:39.933Z,95.90
2018-11-28T19:58:07.518Z,95.40
2018-11-28T20:00:36.781Z,95.50
2018-11-28T20:03:04.661Z,95.50
2018-11-28T20:05:32.247Z,95.70
2018-11-28T20:08:00.197Z,95.40
2018-11-28T20:10:27.783Z,95.40
2018-11-28T20:12:55.399Z,95.40
2018-11-28T20:15:22.981Z,95.40
2018-11-28T20:17:50.563Z,95.40
2018-11-28T20:20:18.162Z,95.50
2018-11-28T20:22:45.789Z,95.60
2018-11-28T20:25:13.373Z,95.60
2018-11-28T20:27:40.955Z,95.70
2018-11-28T20:30:09.300Z,95.70
2018-11-28T20:32:36.886Z,95.60
2018-11-28T20:35:04.473Z,95.70
2018-11-28T20:37:32.073Z,95.70
2018-11-28T20:39:59.648Z,95.70
2018-11-28T20:42:27.305Z,95.70
2018-11-28T20:44:54.897Z,95.90
2018-11-28T20:47:22.510Z,95.70
2018-11-28T20:49:50.474Z,95.70
2018-11-28T20:52:18.052Z,95.80
2018-11-28T20:54:45.649Z,95.80
2018-11-28T20:57:17.369Z,96.30
2018-11-28T20:59:42.424Z,95.90
2018-11-28T21:02:10.012Z,95.80
2018-11-28T21:04:37.556Z,95.80
2018-11-28T21:07:05.241Z,96.00
2018-11-28T21:09:32.790Z,95.70
2018-11-28T21:12:00.365Z,95.70
2018-11-28T21:14:27.983Z,95.70
2018-11-28T21:16:56.325Z,95.80
2018-11-28T21:19:24.722Z,95.80
2018-11-28T21:21:53.084Z,96.10
2018-11-28T21:24:20.671Z,96.00
2018-11-28T21:26:49.073Z,96.10
2018-11-28T21:29:16.651Z,96.10
2018-11-28T21:31:44.241Z,96.00
2018-11-28T21:34:11.872Z,96.10
2018-11-28T21:36:39.448Z,96.20
2018-11-28T21:39:07.084Z,96.20
2018-11-28T21:41:34.671Z,96.20
2018-11-28T21:44:02.309Z,96.30
2018-11-28T21:46:29.891Z,96.20
2018-11-28T21:48:57.507Z,96.30
2018-11-28T21:51:25.139Z,96.40
2018-11-28T21:53:52.726Z,96.40
2018-11-28T21:56:21.074Z,96.60
2018-11-28T21:58:48.709Z,96.40
2018-11-28T22:01:16.293Z,96.50
2018-11-28T22:03:44.707Z,96.50
2018-11-28T22:06:13.584Z,96.90
2018-11-28T22:08:41.175Z,96.60
2018-11-28T22:11:08.810Z,96.70
2018-11-28T22:13:36.394Z,96.90
2018-11-28T22:16:03.967Z,96.40
2018-11-28T22:18:33.153Z,96.30
2018-11-28T22:21:00.731Z,96.30
2018-11-28T22:23:28.339Z,96.40
2018-11-28T22:25:55.953Z,96.40
2018-11-28T22:28:24.311Z,96.50
2018-11-28T22:30:52.309Z,96.40
2018-11-28T22:33:19.887Z,96.50
2018-11-28T22:35:47.476Z,96.50
2018-11-28T22:38:15.097Z,96.50
2018-11-28T22:40:42.685Z,96.60
2018-11-28T22:43:10.271Z,96.60
2018-11-28T22:45:37.890Z,96.60
2018-11-28T22:48:05.475Z,96.70
2018-11-28T22:50:33.356Z,97.20
2018-11-28T22:53:00.936Z,96.80
2018-11-28T22:55:28.512Z,96.90
2018-11-28T22:57:57.288Z,97.00
2018-11-28T23:00:24.883Z,97.00
2018-11-28T23:02:53.265Z,97.50
2018-11-28T23:05:21.316Z,97.50
2018-11-28T23:07:48.861Z,97.20
2018-11-28T23:10:16.463Z,96.80
2018-11-28T23:12:44.055Z,97.00
2018-11-28T23:15:12.467Z,97.00
2018-11-28T23:17:40.082Z,96.60
2018-11-28T23:20:07.661Z,96.60
2018-11-28T23:22:35.268Z,96.90
2018-11-28T23:25:03.619Z,96.80
2018-11-28T23:27:31.261Z,96.80
2018-11-28T23:29:58.837Z,96.90
2018-11-28T23:32:26.410Z,97.10
2018-11-28T23:34:54.034Z,97.20
2018-11-28T23:37:21.611Z,97.40
2018-11-28T23:39:49.192Z,97.40
2018-11-28T23:42:16.815Z,97.50
2018-11-28T23:44:45.492Z,97.70
2018-11-28T23:47:13.155Z,97.80
2018-11-28T23:49:40.735Z,97.90
2018-11-28T23:52:08.313Z,97.90
2018-11-28T23:54:35.936Z,98.00
2018-11-28T23:57:04.296Z,98.10
2018-11-28T23:59:31.875Z,98.10
